Time;durP1;ratioP1;P1;durP2;ratioP2;P2;SDS_P1;SDS_P2;PMS_P1;PMS_P2;Temp;Humidity;BMP_temperature;BMP_pressure;BME280_temperature;BME280_humidity;BME280_pressure;Samples;Min_cycle;Max_cycle;Signal;HPM_P1;HPM_P2
2023/02/08 00:00:45;;;;;;;25.77;12.68;;;-1.70;99.90;;;;;;5052710;28;20082;-85
2023/02/08 00:03:11;;;;;;;25.45;13.75;;;-1.70;99.90;;;;;;5029735;28;20441;-86
2023/02/08 00:05:37;;;;;;;25.10;13.20;;;-1.70;99.90;;;;;;5033292;28;20022;-86
2023/02/08 00:08:03;;;;;;;26.15;13.07;;;-1.60;99.90;;;;;;5031545;28;20478;-86
2023/02/08 00:10:28;;;;;;;24.23;12.27;;;-1.60;99.90;;;;;;5031595;28;20121;-86
2023/02/08 00:12:54;;;;;;;22.73;12.05;;;-1.60;99.90;;;;;;5032218;28;20041;-86
2023/02/08 00:15:20;;;;;;;27.33;13.18;;;-1.60;99.90;;;;;;5031847;28;20032;-85
2023/02/08 00:17:45;;;;;;;19.88;12.07;;;-1.70;99.90;;;;;;5019200;28;20409;-85
2023/02/08 00:20:12;;;;;;;26.20;12.75;;;-1.70;99.90;;;;;;5036198;28;20119;-86
2023/02/08 00:22:38;;;;;;;25.70;13.20;;;-1.60;99.90;;;;;;5032299;28;20033;-86
2023/02/08 00:25:05;;;;;;;24.02;12.55;;;-1.60;99.90;;;;;;5029582;28;20470;-86
2023/02/08 00:27:30;;;;;;;25.02;13.98;;;-1.60;99.90;;;;;;5030984;28;20382;-85
2023/02/08 00:29:56;;;;;;;26.50;13.50;;;-1.70;99.90;;;;;;5034045;28;20171;-85
2023/02/08 00:32:22;;;;;;;22.23;12.35;;;-1.70;99.90;;;;;;5038860;28;20026;-86
2023/02/08 00:34:47;;;;;;;23.05;12.25;;;-1.80;99.90;;;;;;5031521;28;20021;-85
2023/02/08 00:37:13;;;;;;;24.05;12.77;;;-1.80;99.90;;;;;;5031840;28;20021;-86
2023/02/08 00:39:38;;;;;;;21.85;12.35;;;-1.90;99.90;;;;;;5032270;28;20066;-85
2023/02/08 00:42:04;;;;;;;23.75;11.80;;;-1.90;99.90;;;;;;5038045;28;20112;-85
2023/02/08 00:44:29;;;;;;;26.42;13.48;;;-2.00;99.90;;;;;;5031137;28;20002;-85
2023/02/08 00:46:55;;;;;;;22.45;13.02;;;-2.00;99.90;;;;;;5031173;28;20041;-86
2023/02/08 00:49:20;;;;;;;29.92;13.10;;;-2.00;99.90;;;;;;5032645;28;20026;-86
2023/02/08 00:51:46;;;;;;;24.13;12.82;;;-2.10;99.90;;;;;;5031967;28;20068;-86
2023/02/08 00:54:17;;;;;;;31.42;14.63;;;-2.00;99.90;;;;;;5032535;28;20064;-85
2023/02/08 00:56:43;;;;;;;27.45;14.35;;;-2.00;99.90;;;;;;5033034;28;20031;-85
2023/02/08 00:59:09;;;;;;;29.75;14.38;;;-2.00;99.90;;;;;;5031399;28;20053;-85
2023/02/08 01:01:35;;;;;;;33.58;14.25;;;-2.10;99.90;;;;;;5039801;28;20025;-86
2023/02/08 01:04:00;;;;;;;26.27;13.70;;;-2.10;99.90;;;;;;5030449;28;20036;-86
2023/02/08 01:06:26;;;;;;;28.48;14.32;;;-2.10;99.90;;;;;;5031400;28;20045;-85
2023/02/08 01:08:52;;;;;;;27.88;13.65;;;-2.10;99.90;;;;;;5031627;28;20072;-86
2023/02/08 01:11:24;;;;;;;27.83;13.63;;;-2.10;99.90;;;;;;5030242;28;20029;-86
2023/02/08 01:13:56;;;;;;;27.98;14.38;;;-2.10;99.90;;;;;;5022970;28;20029;-85
2023/02/08 01:16:24;;;;;;;28.13;14.52;;;-2.20;99.90;;;;;;5023156;28;20350;-86
2023/02/08 01:18:52;;;;;;;36.05;14.93;;;-2.20;99.90;;;;;;5030404;28;20029;-86
2023/02/08 01:21:21;;;;;;;27.55;14.02;;;-2.30;99.90;;;;;;5031933;28;20025;-85
2023/02/08 01:23:47;;;;;;;32.42;16.08;;;-2.30;99.90;;;;;;5031303;28;20017;-85
2023/02/08 01:26:14;;;;;;;28.15;14.35;;;-2.20;99.90;;;;;;5030665;28;20144;-85
2023/02/08 01:28:40;;;;;;;28.10;15.30;;;-2.20;99.90;;;;;;5025851;28;20066;-85
2023/02/08 01:31:11;;;;;;;28.95;14.60;;;-2.20;99.90;;;;;;5033240;28;20036;-85
2023/02/08 01:33:37;;;;;;;28.52;15.05;;;-2.20;99.90;;;;;;5021211;28;20022;-85
2023/02/08 01:36:04;;;;;;;30.67;15.20;;;-2.10;99.90;;;;;;5028288;28;20032;-85
2023/02/08 01:38:30;;;;;;;28.55;15.70;;;-2.10;99.90;;;;;;5020319;28;20492;-85
2023/02/08 01:40:55;;;;;;;28.25;14.10;;;-2.10;99.90;;;;;;5036368;28;20033;-85
2023/02/08 01:43:25;;;;;;;26.25;13.95;;;-2.10;99.90;;;;;;5040538;28;20499;-85
2023/02/08 01:45:51;;;;;;;26.65;15.25;;;-2.00;99.90;;;;;;5046142;28;20025;-85
2023/02/08 01:48:36;;;;;;;28.35;15.05;;;-2.00;99.90;;;;;;5034415;28;20108;-85
2023/02/08 01:51:04;;;;;;;31.13;14.45;;;-2.00;99.90;;;;;;5035494;28;20071;-85
2023/02/08 01:53:32;;;;;;;31.48;16.75;;;-2.00;99.90;;;;;;5034262;28;20392;-85
2023/02/08 01:56:01;;;;;;;29.48;14.95;;;-2.00;99.90;;;;;;5036621;28;20496;-85
2023/02/08 01:58:29;;;;;;;27.20;15.48;;;-2.00;99.90;;;;;;5055851;28;20065;-85
2023/02/08 02:00:55;;;;;;;31.58;15.73;;;-2.00;99.90;;;;;;5050274;28;20044;-85
2023/02/08 02:03:22;;;;;;;27.65;14.65;;;-2.00;99.90;;;;;;5039419;28;20029;-85
2023/02/08 02:05:52;;;;;;;27.45;14.70;;;-2.00;99.90;;;;;;5024773;28;20493;-85
2023/02/08 02:08:18;;;;;;;29.90;15.25;;;-2.10;99.90;;;;;;5034101;28;20482;-85
2023/02/08 02:10:47;;;;;;;31.33;15.80;;;-2.00;99.90;;;;;;5045572;28;20021;-85
2023/02/08 02:13:16;;;;;;;28.27;15.18;;;-2.00;99.90;;;;;;5031095;28;20033;-85
2023/02/08 02:15:43;;;;;;;30.17;16.30;;;-2.00;99.90;;;;;;5032855;28;20029;-85
2023/02/08 02:18:09;;;;;;;29.48;14.93;;;-2.00;99.90;;;;;;5029651;28;20377;-85
2023/02/08 02:21:06;;;;;;;27.95;14.90;;;-2.10;99.90;;;;;;5018825;28;20021;-84
2023/02/08 02:23:59;;;;;;;29.10;14.57;;;-2.00;99.90;;;;;;5033848;28;20029;-86
2023/02/08 02:26:48;;;;;;;28.65;14.80;;;-2.00;99.90;;;;;;5033630;28;20432;-85
2023/02/08 02:29:50;;;;;;;32.70;14.90;;;-2.00;99.90;;;;;;5026972;28;20029;-86
2023/02/08 02:32:46;;;;;;;26.02;14.45;;;-2.00;99.90;;;;;;5029914;28;20032;-85
2023/02/08 02:35:28;;;;;;;32.88;16.52;;;-1.90;99.90;;;;;;5027538;28;20485;-85
2023/02/08 02:38:09;;;;;;;32.75;15.63;;;-2.00;99.90;;;;;;5022254;28;20033;-86
2023/02/08 02:40:47;;;;;;;33.37;14.40;;;-2.00;99.90;;;;;;5017614;28;20049;-86
2023/02/08 02:43:40;;;;;;;27.02;14.38;;;-2.10;99.90;;;;;;5025724;28;20083;-85
2023/02/08 02:46:27;;;;;;;29.63;15.45;;;-2.10;99.90;;;;;;5032616;28;20164;-86
2023/02/08 02:49:03;;;;;;;27.45;14.23;;;-2.10;99.90;;;;;;5026127;28;20048;-86
2023/02/08 02:51:42;;;;;;;31.13;15.93;;;-2.20;99.90;;;;;;5032864;28;20025;-86
2023/02/08 02:54:07;;;;;;;29.88;15.93;;;-2.30;99.90;;;;;;5037870;28;20057;-86
2023/02/08 02:56:46;;;;;;;30.02;15.90;;;-2.30;99.90;;;;;;5030750;28;20488;-84
2023/02/08 02:59:14;;;;;;;32.17;16.08;;;-2.30;99.90;;;;;;5035998;28;20041;-85
2023/02/08 03:01:43;;;;;;;31.50;15.32;;;-2.30;99.90;;;;;;5050098;28;20040;-85
2023/02/08 03:04:31;;;;;;;29.33;15.98;;;-2.30;99.90;;;;;;5033608;28;20071;-86
2023/02/08 03:07:18;;;;;;;26.13;14.38;;;-2.40;99.90;;;;;;5032938;28;20092;-85
2023/02/08 03:10:32;;;;;;;34.15;15.32;;;-2.40;99.90;;;;;;5034158;28;20036;-86
2023/02/08 03:13:08;;;;;;;32.03;15.50;;;-2.40;99.90;;;;;;5030421;28;20516;-85
2023/02/08 03:15:45;;;;;;;29.35;15.25;;;-2.50;99.90;;;;;;5031884;28;20440;-85
2023/02/08 03:18:32;;;;;;;29.88;15.35;;;-2.40;99.90;;;;;;5033094;28;20071;-86
2023/02/08 03:21:17;;;;;;;32.47;15.13;;;-2.40;99.90;;;;;;5029566;28;20036;-85
2023/02/08 03:24:01;;;;;;;28.45;14.35;;;-2.40;99.90;;;;;;5032625;28;20045;-86
2023/02/08 03:26:57;;;;;;;26.80;14.02;;;-2.40;99.90;;;;;;5032388;28;20096;-86
2023/02/08 03:29:43;;;;;;;29.40;15.50;;;-2.40;99.90;;;;;;5028400;28;20113;-86
2023/02/08 03:32:24;;;;;;;28.75;14.32;;;-2.40;99.90;;;;;;5024218;28;20030;-86
2023/02/08 03:34:56;;;;;;;28.15;14.18;;;-2.40;99.90;;;;;;5040712;28;20034;-86
2023/02/08 03:37:23;;;;;;;26.85;14.00;;;-2.50;99.90;;;;;;5021089;28;20052;-86
2023/02/08 03:39:53;;;;;;;27.33;13.50;;;-2.50;99.90;;;;;;5035453;28;20037;-86
2023/02/08 03:42:24;;;;;;;28.17;14.90;;;-2.50;99.90;;;;;;5033014;28;20481;-86
2023/02/08 03:45:04;;;;;;;29.42;15.23;;;-2.50;99.90;;;;;;5032483;28;20036;-86
2023/02/08 03:47:35;;;;;;;35.60;17.67;;;-2.50;99.90;;;;;;5017643;28;20041;-86
2023/02/08 03:50:07;;;;;;;27.42;15.50;;;-2.50;99.90;;;;;;5014179;28;20018;-87
2023/02/08 03:52:34;;;;;;;30.45;15.00;;;-2.50;99.90;;;;;;5013546;28;20040;-86
2023/02/08 03:55:09;;;;;;;30.17;16.23;;;-2.50;99.90;;;;;;5022483;28;20159;-87
2023/02/08 03:57:48;;;;;;;37.55;15.48;;;-2.50;99.90;;;;;;5019689;28;20470;-87
2023/02/08 04:00:16;;;;;;;29.55;15.18;;;-2.50;99.90;;;;;;5017396;28;20026;-87
2023/02/08 04:02:57;;;;;;;29.58;16.17;;;-2.50;99.90;;;;;;5026173;28;20083;-87
2023/02/08 04:05:23;;;;;;;34.72;17.30;;;-2.50;99.90;;;;;;5030481;28;20025;-87
2023/02/08 04:07:50;;;;;;;28.70;15.38;;;-2.60;99.90;;;;;;5030152;28;20466;-88
2023/02/08 04:10:16;;;;;;;28.42;15.52;;;-2.60;99.90;;;;;;5027654;28;20367;-87
2023/02/08 04:12:44;;;;;;;33.08;16.33;;;-2.60;99.90;;;;;;5024456;28;20052;-87
2023/02/08 04:15:09;;;;;;;32.13;16.30;;;-2.70;99.90;;;;;;5023693;28;20022;-87
2023/02/08 04:17:35;;;;;;;30.35;16.20;;;-2.70;99.90;;;;;;5032701;28;20026;-88
2023/02/08 04:20:00;;;;;;;29.50;15.70;;;-2.60;99.90;;;;;;5028888;28;20033;-88
2023/02/08 04:22:26;;;;;;;34.08;15.60;;;-2.60;99.90;;;;;;5029992;28;20030;-87
2023/02/08 04:24:51;;;;;;;31.92;17.15;;;-2.60;99.90;;;;;;5033120;28;20037;-88
2023/02/08 04:27:17;;;;;;;33.45;15.73;;;-2.60;99.90;;;;;;5046450;28;20386;-88
2023/02/08 04:29:43;;;;;;;29.02;14.77;;;-2.60;99.90;;;;;;5030960;28;20097;-87
2023/02/08 04:32:10;;;;;;;26.40;14.23;;;-2.70;99.90;;;;;;5035038;28;20367;-88
2023/02/08 04:34:37;;;;;;;30.67;15.43;;;-2.60;99.90;;;;;;5024214;28;20021;-87
2023/02/08 04:37:03;;;;;;;29.90;14.85;;;-2.80;99.90;;;;;;5028509;28;20029;-88
2023/02/08 04:39:29;;;;;;;31.33;14.90;;;-2.80;99.90;;;;;;5029325;28;20030;-87
2023/02/08 04:41:54;;;;;;;29.00;16.10;;;-2.80;99.90;;;;;;5023536;28;20025;-87
2023/02/08 04:44:20;;;;;;;34.10;16.48;;;-2.90;99.90;;;;;;5022442;28;20018;-87
2023/02/08 04:46:46;;;;;;;31.48;16.45;;;-2.90;99.90;;;;;;5031943;28;20477;-88
2023/02/08 04:49:11;;;;;;;31.10;16.20;;;-2.90;99.90;;;;;;5032736;28;20026;-88
2023/02/08 04:51:37;;;;;;;33.35;16.95;;;-2.90;99.90;;;;;;5032108;28;20025;-88
2023/02/08 04:54:02;;;;;;;33.50;17.15;;;-2.90;99.90;;;;;;5030705;28;20034;-88
2023/02/08 04:56:28;;;;;;;32.72;17.38;;;-2.80;99.90;;;;;;5020577;28;20072;-88
2023/02/08 04:58:54;;;;;;;31.92;16.95;;;-2.80;99.90;;;;;;5028589;28;20030;-88
2023/02/08 05:01:19;;;;;;;32.28;16.55;;;-2.90;99.90;;;;;;5023989;28;20025;-88
2023/02/08 05:03:45;;;;;;;31.73;15.68;;;-2.90;99.90;;;;;;5031551;28;20116;-88
2023/02/08 05:06:10;;;;;;;35.92;18.13;;;-2.90;99.90;;;;;;5031129;28;20366;-88
2023/02/08 05:08:36;;;;;;;36.50;17.00;;;-2.90;99.90;;;;;;5024789;28;20029;-87
2023/02/08 05:11:02;;;;;;;31.30;15.77;;;-2.90;99.90;;;;;;5018189;28;20075;-88
2023/02/08 05:13:27;;;;;;;29.25;16.33;;;-2.90;99.90;;;;;;5035139;28;20085;-88
2023/02/08 05:15:53;;;;;;;29.60;16.17;;;-3.00;99.90;;;;;;5037822;28;20068;-88
2023/02/08 05:18:18;;;;;;;36.13;17.70;;;-3.00;99.90;;;;;;5037599;28;20022;-88
2023/02/08 05:20:44;;;;;;;35.00;18.08;;;-3.00;99.90;;;;;;5051129;28;20033;-89
2023/02/08 05:23:10;;;;;;;33.33;16.67;;;-3.10;99.90;;;;;;5036747;28;20021;-89
2023/02/08 05:25:38;;;;;;;32.17;16.15;;;-3.10;99.90;;;;;;5038750;28;20041;-89
2023/02/08 05:28:03;;;;;;;32.40;15.85;;;-3.10;99.90;;;;;;5037426;28;20052;-89
2023/02/08 05:30:30;;;;;;;29.50;15.90;;;-3.20;99.90;;;;;;5033883;28;20029;-89
2023/02/08 05:32:55;;;;;;;29.05;15.18;;;-3.20;99.90;;;;;;5030849;28;20080;-89
2023/02/08 05:35:21;;;;;;;29.27;14.95;;;-3.20;99.90;;;;;;5038106;28;20029;-89
2023/02/08 05:37:46;;;;;;;30.13;14.85;;;-3.20;99.90;;;;;;5034094;28;20084;-89
2023/02/08 05:40:12;;;;;;;27.40;15.38;;;-3.20;99.90;;;;;;5038295;28;20032;-89
2023/02/08 05:42:38;;;;;;;28.35;13.85;;;-3.20;99.90;;;;;;5038238;28;20051;-89
2023/02/08 05:45:04;;;;;;;29.88;13.90;;;-3.10;99.90;;;;;;5038068;28;20478;-90
2023/02/08 05:47:30;;;;;;;26.50;13.98;;;-3.10;99.90;;;;;;5037550;28;20034;-90
2023/02/08 05:49:55;;;;;;;23.20;11.95;;;-3.10;99.90;;;;;;5038072;28;20031;-90
2023/02/08 05:52:21;;;;;;;24.08;12.73;;;-3.10;99.90;;;;;;5037951;28;20064;-90
2023/02/08 05:54:46;;;;;;;23.95;11.15;;;-2.90;99.90;;;;;;5039301;28;20021;-89
2023/02/08 05:57:12;;;;;;;24.40;11.02;;;-2.80;99.90;;;;;;5034643;28;20029;-90
2023/02/08 05:59:37;;;;;;;24.05;11.55;;;-2.80;99.90;;;;;;5034630;28;20017;-90
2023/02/08 06:02:03;;;;;;;23.90;11.48;;;-2.70;99.90;;;;;;5037801;28;20033;-90
2023/02/08 06:04:28;;;;;;;23.02;10.98;;;-2.60;99.90;;;;;;5038319;28;20025;-89
2023/02/08 06:06:54;;;;;;;21.42;11.35;;;-2.50;99.90;;;;;;5035575;28;20056;-89
2023/02/08 06:09:19;;;;;;;20.73;10.80;;;-2.50;99.90;;;;;;5032216;28;20025;-90
2023/02/08 06:11:45;;;;;;;22.42;10.88;;;-2.40;99.90;;;;;;5034055;28;20040;-91
2023/02/08 06:14:10;;;;;;;19.38;10.32;;;-2.40;99.90;;;;;;5039232;28;20025;-91
2023/02/08 06:16:36;;;;;;;22.65;11.13;;;-2.30;99.90;;;;;;5024465;28;20026;-90
2023/02/08 06:19:01;;;;;;;19.88;9.75;;;-2.30;99.90;;;;;;5021049;28;20037;-90
2023/02/08 06:21:27;;;;;;;23.95;11.40;;;-2.20;99.90;;;;;;5037893;28;20034;-90
2023/02/08 06:23:53;;;;;;;18.33;9.40;;;-2.20;99.90;;;;;;5037617;28;20037;-90
2023/02/08 06:26:18;;;;;;;25.33;9.52;;;-2.20;99.90;;;;;;5033382;28;20445;-89
2023/02/08 06:28:44;;;;;;;23.40;10.65;;;-2.20;99.90;;;;;;5042674;28;20053;-90
2023/02/08 06:31:09;;;;;;;19.15;9.55;;;-2.20;99.90;;;;;;5042135;28;20036;-93
2023/02/08 06:33:35;;;;;;;22.23;11.15;;;-2.20;99.90;;;;;;5022819;28;20319;-91
2023/02/08 06:36:01;;;;;;;18.98;10.02;;;-2.20;99.90;;;;;;5035935;28;20071;-91
2023/02/08 06:38:26;;;;;;;21.77;9.73;;;-2.10;99.90;;;;;;5035389;28;20045;-91
2023/02/08 06:40:52;;;;;;;19.70;9.93;;;-2.10;99.90;;;;;;5035309;28;20029;-92
2023/02/08 06:43:17;;;;;;;20.08;10.13;;;-2.00;99.90;;;;;;5036517;28;20362;-91
2023/02/08 06:45:45;;;;;;;24.40;10.23;;;-2.00;99.90;;;;;;5035679;28;20116;-92
2023/02/08 06:48:11;;;;;;;21.27;9.43;;;-2.00;99.90;;;;;;5024637;28;20061;-91
2023/02/08 06:50:37;;;;;;;17.95;9.70;;;-2.00;99.90;;;;;;5033662;28;20057;-90
2023/02/08 06:53:03;;;;;;;20.65;9.93;;;-2.00;99.90;;;;;;5035996;28;20026;-91
2023/02/08 06:55:28;;;;;;;21.10;9.82;;;-2.00;99.90;;;;;;5030173;28;20033;-92
2023/02/08 06:57:55;;;;;;;23.00;9.77;;;-2.00;99.90;;;;;;5033789;28;20040;-91
2023/02/08 07:00:20;;;;;;;22.42;10.13;;;-2.00;99.90;;;;;;5033101;28;20029;-91
2023/02/08 07:02:46;;;;;;;18.58;9.20;;;-1.90;99.90;;;;;;5035348;28;20547;-92
2023/02/08 07:05:13;;;;;;;20.85;9.48;;;-1.90;99.90;;;;;;5035284;28;20026;-94
2023/02/08 07:07:38;;;;;;;21.15;9.65;;;-1.80;99.90;;;;;;5035263;28;20040;-92
2023/02/08 07:10:04;;;;;;;20.63;9.77;;;-1.80;99.90;;;;;;5035097;28;20493;-92
2023/02/08 07:12:35;;;;;;;20.90;9.63;;;-1.80;99.90;;;;;;5034690;28;20125;-92
2023/02/08 07:15:01;;;;;;;20.05;9.82;;;-1.80;99.90;;;;;;5032530;28;20095;-92
2023/02/08 07:17:27;;;;;;;18.17;9.20;;;-1.80;99.90;;;;;;5039986;28;20029;-92
2023/02/08 07:19:52;;;;;;;18.50;8.00;;;-1.80;99.90;;;;;;5035669;28;20045;-93
2023/02/08 07:22:18;;;;;;;19.85;9.60;;;-1.70;99.90;;;;;;5035418;28;20021;-92
2023/02/08 07:24:43;;;;;;;16.98;8.52;;;-1.70;99.90;;;;;;5031306;28;20021;-92
2023/02/08 07:27:11;;;;;;;21.48;10.20;;;-1.70;99.90;;;;;;5025690;28;20049;-92
2023/02/08 07:29:37;;;;;;;19.55;8.65;;;-1.70;99.90;;;;;;5035582;28;20020;-92
2023/02/08 07:32:04;;;;;;;17.48;9.45;;;-1.70;99.90;;;;;;5035449;28;20124;-92
2023/02/08 07:34:32;;;;;;;17.88;9.50;;;-1.80;99.90;;;;;;5034290;28;20025;-92
2023/02/08 07:36:57;;;;;;;21.08;9.75;;;-1.70;99.90;;;;;;5033397;28;20025;-90
2023/02/08 07:39:24;;;;;;;16.30;9.35;;;-1.70;99.90;;;;;;5029155;28;20060;-92
2023/02/08 07:41:50;;;;;;;19.55;9.50;;;-1.70;99.90;;;;;;5033364;28;20120;-92
2023/02/08 07:44:15;;;;;;;18.00;9.95;;;-1.70;99.90;;;;;;5029297;28;20057;-92
2023/02/08 07:46:41;;;;;;;24.05;10.75;;;-1.60;99.90;;;;;;5033160;28;20117;-92
2023/02/08 07:49:07;;;;;;;20.27;9.45;;;-1.60;99.90;;;;;;5033117;28;20025;-93
2023/02/08 07:51:32;;;;;;;18.17;9.05;;;-1.60;99.90;;;;;;5031898;28;20022;-92
2023/02/08 07:53:58;;;;;;;20.60;9.52;;;-1.50;99.90;;;;;;5031026;28;20029;-93
2023/02/08 07:56:24;;;;;;;21.45;9.70;;;-1.40;99.90;;;;;;5033769;28;20397;-93
2023/02/08 07:58:49;;;;;;;19.95;9.50;;;-1.30;99.90;;;;;;5037967;28;20057;-92
2023/02/08 08:01:15;;;;;;;18.77;9.27;;;-1.30;99.90;;;;;;5038024;28;20074;-91
2023/02/08 08:03:40;;;;;;;19.35;9.95;;;-1.20;99.90;;;;;;5035937;28;20095;-91
2023/02/08 08:06:06;;;;;;;18.55;9.60;;;-1.10;99.90;;;;;;5032426;28;20044;-91
2023/02/08 08:08:32;;;;;;;20.17;10.30;;;-1.10;99.90;;;;;;5036151;28;20391;-91
2023/02/08 08:10:57;;;;;;;22.92;10.20;;;-1.00;99.90;;;;;;5035776;28;20116;-92
2023/02/08 08:13:23;;;;;;;20.15;10.18;;;-1.00;99.90;;;;;;5033424;28;20565;-91
2023/02/08 08:15:48;;;;;;;16.63;7.85;;;-0.90;99.90;;;;;;5034638;28;20030;-91
2023/02/08 08:18:14;;;;;;;17.73;9.57;;;-0.80;99.90;;;;;;5029645;28;20101;-93
2023/02/08 08:20:40;;;;;;;21.55;10.40;;;-0.80;99.90;;;;;;5033945;28;20029;-93
2023/02/08 08:23:06;;;;;;;18.17;9.25;;;-0.70;99.90;;;;;;5033072;28;20442;-91
2023/02/08 08:25:31;;;;;;;23.20;9.48;;;-0.70;99.90;;;;;;5034739;28;20060;-91
2023/02/08 08:27:57;;;;;;;19.73;9.90;;;-0.60;99.90;;;;;;5033144;28;20037;-92
2023/02/08 08:30:23;;;;;;;21.17;10.30;;;-0.50;99.90;;;;;;5031963;28;20025;-93
2023/02/08 08:32:48;;;;;;;19.10;10.20;;;-0.40;99.90;;;;;;5017472;28;20038;-93
2023/02/08 08:35:14;;;;;;;21.70;10.10;;;-0.40;99.90;;;;;;5030998;28;20049;-93
2023/02/08 08:37:39;;;;;;;17.45;9.48;;;-0.30;99.90;;;;;;5022098;28;20029;-92
2023/02/08 08:40:06;;;;;;;19.73;9.18;;;-0.20;99.90;;;;;;5033609;28;20083;-92
2023/02/08 08:42:33;;;;;;;17.58;8.43;;;-0.10;99.90;;;;;;5033220;28;20112;-91
2023/02/08 08:44:58;;;;;;;18.42;9.25;;;-0.10;99.90;;;;;;5032408;28;20116;-91
2023/02/08 08:47:24;;;;;;;17.48;9.20;;;0.00;99.90;;;;;;5020684;28;20120;-91
2023/02/08 08:49:49;;;;;;;19.00;10.40;;;0.10;99.90;;;;;;5026513;28;20044;-90
2023/02/08 08:52:15;;;;;;;20.38;9.65;;;0.20;99.90;;;;;;5029457;28;20393;-90
2023/02/08 08:54:41;;;;;;;18.65;9.68;;;0.30;99.90;;;;;;5017264;28;20057;-89
2023/02/08 08:57:06;;;;;;;18.15;9.80;;;0.40;99.90;;;;;;5030612;28;20029;-88
2023/02/08 08:59:32;;;;;;;18.67;9.18;;;0.50;99.90;;;;;;5031787;28;20462;-89
2023/02/08 09:01:58;;;;;;;17.70;9.80;;;0.60;99.90;;;;;;5031549;28;20409;-88
2023/02/08 09:04:24;;;;;;;21.38;9.98;;;0.70;99.90;;;;;;5030926;28;20388;-88
2023/02/08 09:06:51;;;;;;;20.58;10.52;;;0.80;99.90;;;;;;5031429;28;20038;-88
2023/02/08 09:09:17;;;;;;;20.13;9.30;;;1.00;99.90;;;;;;5030445;28;20083;-89
2023/02/08 09:11:42;;;;;;;17.95;9.27;;;1.10;99.90;;;;;;5035524;28;20037;-88
2023/02/08 09:14:08;;;;;;;19.77;9.20;;;1.20;99.90;;;;;;5028994;28;20026;-88
2023/02/08 09:16:34;;;;;;;15.95;8.95;;;1.20;99.90;;;;;;5031787;28;20072;-89
2023/02/08 09:19:01;;;;;;;16.88;9.77;;;1.30;99.90;;;;;;5034843;28;20033;-89
2023/02/08 09:21:26;;;;;;;18.48;9.10;;;1.30;99.90;;;;;;5033952;28;20100;-89
2023/02/08 09:23:52;;;;;;;18.80;10.02;;;1.30;99.90;;;;;;5034865;28;20033;-89
2023/02/08 09:26:19;;;;;;;19.60;9.07;;;1.40;99.90;;;;;;5034182;28;20095;-88
2023/02/08 09:28:45;;;;;;;17.92;9.52;;;1.40;99.90;;;;;;5034593;28;20052;-89
2023/02/08 09:31:18;;;;;;;18.00;8.85;;;1.40;99.90;;;;;;5021820;28;20025;-89
2023/02/08 09:33:43;;;;;;;18.27;8.90;;;1.50;99.90;;;;;;5034532;28;20806;-89
2023/02/08 09:36:09;;;;;;;18.17;9.35;;;1.60;99.90;;;;;;5033482;28;20037;-89
2023/02/08 09:38:36;;;;;;;19.40;9.82;;;1.60;99.90;;;;;;5033349;28;20029;-88
2023/02/08 09:41:35;;;;;;;19.17;9.15;;;1.60;99.90;;;;;;5033941;28;20030;-89
2023/02/08 09:44:26;;;;;;;15.52;7.95;;;1.70;99.90;;;;;;5033386;28;20037;-88
2023/02/08 09:47:28;;;;;;;19.02;8.77;;;1.80;99.90;;;;;;5033768;28;20505;-89
2023/02/08 09:50:16;;;;;;;16.05;9.18;;;1.80;99.90;;;;;;5001321;28;20037;-88
2023/02/08 09:52:51;;;;;;;16.48;8.38;;;1.80;99.90;;;;;;5015770;28;20092;-89
2023/02/08 09:55:27;;;;;;;17.80;9.40;;;1.80;99.90;;;;;;5022585;28;20021;-89
2023/02/08 09:57:56;;;;;;;15.23;8.75;;;1.80;99.90;;;;;;5033947;28;20025;-88
2023/02/08 10:00:33;;;;;;;20.13;10.00;;;1.80;99.90;;;;;;5037508;28;20335;-89
2023/02/08 10:03:01;;;;;;;20.50;9.98;;;1.90;99.90;;;;;;5037757;28;20423;-89
2023/02/08 10:05:29;;;;;;;19.67;9.65;;;1.90;99.90;;;;;;5037900;28;20024;-88
2023/02/08 10:07:55;;;;;;;19.00;8.88;;;2.00;99.90;;;;;;5037826;28;20037;-89
2023/02/08 10:10:35;;;;;;;14.65;8.80;;;2.10;99.90;;;;;;5037156;28;20040;-88
2023/02/08 10:13:19;;;;;;;17.55;10.07;;;2.10;99.90;;;;;;5037588;28;20030;-88
2023/02/08 10:16:03;;;;;;;15.95;8.05;;;2.10;99.90;;;;;;5030116;28;20030;-88
2023/02/08 10:19:10;;;;;;;17.50;9.48;;;2.20;99.90;;;;;;5029188;28;20030;-87
2023/02/08 10:22:01;;;;;;;15.38;8.75;;;2.20;99.90;;;;;;5017458;28;20029;-87
2023/02/08 10:24:46;;;;;;;14.38;8.23;;;2.20;99.90;;;;;;5035683;28;20091;-87
2023/02/08 10:27:16;;;;;;;17.48;9.38;;;2.30;99.90;;;;;;5033773;28;20060;-87
2023/02/08 10:29:52;;;;;;;18.10;9.20;;;2.30;99.90;;;;;;5035597;28;20080;-87
2023/02/08 10:32:38;;;;;;;17.27;8.38;;;2.40;99.90;;;;;;5036591;28;20041;-87
2023/02/08 10:35:10;;;;;;;16.20;8.70;;;2.40;99.90;;;;;;5036792;28;20025;-86
2023/02/08 10:37:40;;;;;;;16.95;8.55;;;2.50;99.90;;;;;;5035297;28;20025;-87
2023/02/08 10:40:19;;;;;;;15.32;8.43;;;2.60;99.90;;;;;;5034178;28;20129;-86
2023/02/08 10:42:54;;;;;;;13.65;7.70;;;2.60;99.90;;;;;;5031955;28;20052;-87
2023/02/08 10:45:29;;;;;;;15.70;8.43;;;2.60;99.90;;;;;;5024136;28;20038;-86
2023/02/08 10:47:59;;;;;;;15.98;7.82;;;2.70;99.90;;;;;;5016999;28;20497;-86
2023/02/08 10:50:33;;;;;;;17.15;8.32;;;2.70;99.90;;;;;;5026186;28;20425;-87
2023/02/08 10:52:59;;;;;;;18.85;8.98;;;2.80;99.90;;;;;;5033187;28;20037;-87
2023/02/08 10:55:25;;;;;;;15.15;7.65;;;2.80;99.90;;;;;;5035923;28;20068;-87
2023/02/08 10:57:56;;;;;;;14.27;7.28;;;2.90;99.90;;;;;;5032149;28;20093;-86
2023/02/08 11:00:26;;;;;;;15.00;7.38;;;3.00;99.90;;;;;;5028577;28;20112;-84
2023/02/08 11:02:54;;;;;;;14.25;7.97;;;3.10;99.90;;;;;;5030028;28;20021;-87
2023/02/08 11:05:31;;;;;;;12.75;7.22;;;3.20;99.90;;;;;;5034871;28;20480;-87
2023/02/08 11:08:09;;;;;;;12.63;7.18;;;3.30;99.90;;;;;;5035804;28;20680;-87
2023/02/08 11:10:38;;;;;;;12.13;6.70;;;3.50;99.90;;;;;;5031599;28;20022;-87
2023/02/08 11:13:14;;;;;;;12.95;7.18;;;3.60;99.90;;;;;;5034214;28;20070;-88
2023/02/08 11:15:50;;;;;;;12.88;6.57;;;3.70;99.90;;;;;;5032369;28;20037;-88
2023/02/08 11:18:23;;;;;;;11.65;7.10;;;3.80;99.90;;;;;;5033652;28;20026;-87
2023/02/08 11:20:53;;;;;;;9.55;5.82;;;3.90;99.90;;;;;;5033576;28;20044;-87
2023/02/08 11:23:32;;;;;;;11.73;6.15;;;4.00;99.90;;;;;;5033827;28;20489;-87
2023/02/08 11:26:35;;;;;;;14.43;6.38;;;4.00;99.90;;;;;;5041805;28;20026;-87
2023/02/08 11:29:21;;;;;;;11.48;6.43;;;4.10;99.90;;;;;;5031148;28;20044;-88
2023/02/08 11:32:13;;;;;;;12.93;6.10;;;4.30;99.90;;;;;;5033097;28;20471;-88
2023/02/08 11:34:39;;;;;;;11.50;5.82;;;4.40;99.90;;;;;;5034351;28;20607;-88
2023/02/08 11:37:17;;;;;;;12.93;5.60;;;4.40;99.90;;;;;;5032225;28;20022;-88
2023/02/08 11:39:53;;;;;;;10.00;5.18;;;4.50;99.90;;;;;;5029784;28;20036;-87
2023/02/08 11:42:22;;;;;;;9.88;5.45;;;4.50;99.90;;;;;;5026932;28;20036;-88
2023/02/08 11:44:49;;;;;;;9.15;4.88;;;4.60;99.90;;;;;;5033145;28;20040;-87
2023/02/08 11:47:21;;;;;;;10.93;5.07;;;4.70;99.90;;;;;;5019671;28;20087;-88
2023/02/08 11:49:55;;;;;;;8.98;4.97;;;4.80;99.90;;;;;;5032732;28;20017;-87
2023/02/08 11:52:28;;;;;;;10.13;5.10;;;4.90;99.90;;;;;;5020065;28;20117;-87
2023/02/08 11:55:10;;;;;;;9.18;5.00;;;4.90;99.90;;;;;;5019098;28;20086;-88
2023/02/08 11:58:00;;;;;;;10.15;5.32;;;4.90;99.90;;;;;;5038731;28;20056;-87
2023/02/08 12:00:36;;;;;;;11.93;6.35;;;5.00;99.90;;;;;;5026435;28;20683;-87
2023/02/08 12:03:13;;;;;;;13.27;6.07;;;5.00;99.90;;;;;;5023555;28;20113;-88
2023/02/08 12:06:05;;;;;;;10.68;5.25;;;5.10;99.90;;;;;;5033533;28;20041;-88
2023/02/08 12:08:47;;;;;;;7.85;4.75;;;5.30;99.90;;;;;;5030118;28;20133;-87
2023/02/08 12:11:32;;;;;;;8.43;4.65;;;5.30;99.90;;;;;;5038959;28;20017;-87
2023/02/08 12:14:26;;;;;;;7.65;4.88;;;5.40;99.90;;;;;;5027264;28;20026;-89
2023/02/08 12:17:10;;;;;;;9.10;4.72;;;5.50;99.90;;;;;;5012374;28;20116;-88
2023/02/08 12:20:18;;;;;;;8.63;4.22;;;5.60;99.90;;;;;;5034888;28;20033;-88
2023/02/08 12:23:23;;;;;;;7.80;4.55;;;5.60;99.90;;;;;;5025397;28;20034;-89
2023/02/08 12:26:08;;;;;;;7.78;4.72;;;5.70;99.90;;;;;;5011277;28;20107;-88
2023/02/08 12:28:43;;;;;;;7.90;4.63;;;5.80;99.90;;;;;;5032467;28;20056;-88
2023/02/08 12:31:32;;;;;;;7.57;4.03;;;5.80;99.90;;;;;;5033745;28;20033;-88
2023/02/08 12:34:21;;;;;;;8.23;4.05;;;5.90;99.90;;;;;;5017643;28;20052;-89
2023/02/08 12:43:35;;;;;;;8.43;4.63;;;6.10;99.90;;;;;;5020946;28;20421;-89
2023/02/08 12:46:39;;;;;;;10.25;4.60;;;6.10;99.90;;;;;;5032650;28;20025;-89
2023/02/08 12:49:41;;;;;;;7.90;4.65;;;6.20;99.80;;;;;;5013257;28;20482;-89
2023/02/08 12:52:13;;;;;;;8.23;3.92;;;6.30;99.50;;;;;;5027496;28;20026;-89
2023/02/08 12:54:49;;;;;;;13.45;4.15;;;6.30;98.70;;;;;;5032578;28;20099;-89
2023/02/08 12:57:18;;;;;;;7.72;4.10;;;6.30;98.20;;;;;;5031002;28;20259;-89
2023/02/08 12:59:48;;;;;;;7.82;4.57;;;6.40;97.80;;;;;;5017187;28;20030;-89
2023/02/08 13:02:43;;;;;;;7.50;3.85;;;6.40;97.20;;;;;;5031530;28;20030;-90